createdAt,value
2018-04-23T00:01:55.507Z,63.20
2018-04-23T00:04:23.781Z,63.80
2018-04-23T00:06:51.401Z,63.80
2018-04-23T00:09:18.909Z,64.20
2018-04-23T00:11:46.417Z,64.50
2018-04-23T00:14:13.965Z,64.50
2018-04-23T00:16:42.384Z,65.20
2018-04-23T00:19:09.893Z,65.20
2018-04-23T00:21:37.440Z,65.40
2018-04-23T00:24:04.955Z,65.70
2018-04-23T00:26:32.478Z,66.00
2018-04-23T00:28:59.999Z,67.10
2018-04-23T00:31:27.555Z,67.10
2018-04-23T00:33:55.846Z,67.50
2018-04-23T00:36:23.378Z,67.10
2018-04-23T00:38:51.666Z,66.80
2018-04-23T00:41:20.020Z,66.40
2018-04-23T00:43:47.784Z,66.40
2018-04-23T00:46:15.287Z,66.70
2018-04-23T00:48:43.561Z,66.80
2018-04-23T00:51:11.862Z,66.30
2018-04-23T00:53:39.373Z,66.30
2018-04-23T00:56:06.879Z,66.70
2018-04-23T00:58:34.451Z,66.20
2018-04-23T01:01:02.726Z,66.30
2018-04-23T01:03:30.249Z,66.20
2018-04-23T01:05:57.809Z,66.30
2018-04-23T01:08:25.319Z,66.20
2018-04-23T01:10:52.816Z,66.20
2018-04-23T01:13:20.362Z,66.10
2018-04-23T01:15:47.874Z,66.40
2018-04-23T01:18:16.890Z,66.40
2018-04-23T01:20:45.177Z,67.00
2018-04-23T01:23:13.449Z,66.70
2018-04-23T01:25:41.729Z,66.80
2018-04-23T01:28:10.022Z,66.20
2018-04-23T01:30:38.310Z,67.20
2018-04-23T01:33:06.595Z,67.20
2018-04-23T01:35:34.137Z,67.10
2018-04-23T01:38:02.419Z,67.70
2018-04-23T01:40:30.721Z,67.90
2018-04-23T01:42:58.275Z,67.90
2018-04-23T01:45:27.757Z,67.40
2018-04-23T01:47:56.048Z,66.90
2018-04-23T01:50:24.370Z,68.40
2018-04-23T01:52:51.883Z,68.40
2018-04-23T01:55:19.398Z,68.40
2018-04-23T01:57:46.939Z,68.40
2018-04-23T02:00:15.205Z,67.90
2018-04-23T02:02:42.717Z,67.80
2018-04-23T02:05:10.271Z,67.80
2018-04-23T02:07:37.788Z,68.40
2018-04-23T02:10:05.298Z,68.60
2018-04-23T02:12:32.828Z,68.80
2018-04-23T02:15:00.352Z,68.70
2018-04-23T02:17:27.856Z,68.70
2018-04-23T02:19:56.144Z,68.50
2018-04-23T02:22:24.421Z,67.80
2018-04-23T02:24:52.697Z,68.40
2018-04-23T02:27:20.996Z,67.90
2018-04-23T02:29:49.269Z,67.30
2018-04-23T02:32:17.559Z,68.30
2018-04-23T02:34:45.854Z,68.20
2018-04-23T02:37:13.362Z,68.10
2018-04-23T02:39:40.872Z,67.90
2018-04-23T02:42:08.398Z,67.80
2018-04-23T02:44:36.677Z,67.50
2018-04-23T02:47:04.344Z,67.50
2018-04-23T02:49:31.885Z,67.20
2018-04-23T02:51:59.396Z,66.90
2018-04-23T02:54:27.669Z,66.60
2018-04-23T02:56:55.981Z,66.60
2018-04-23T02:59:23.480Z,66.60
2018-04-23T03:01:50.999Z,67.50
2018-04-23T03:04:18.553Z,67.50
2018-04-23T03:06:46.831Z,68.10
2018-04-23T03:09:15.096Z,67.50
2018-04-23T03:11:42.634Z,67.40
2018-04-23T03:14:10.148Z,67.70
2018-04-23T03:16:38.421Z,67.40
2018-04-23T03:19:06.737Z,68.20
2018-04-23T03:21:34.241Z,68.30
2018-04-23T03:24:01.750Z,68.60
2018-04-23T03:26:29.277Z,68.90
2018-04-23T03:28:56.802Z,69.90
2018-04-23T03:31:24.321Z,69.70
2018-04-23T03:33:52.604Z,69.40
2018-04-23T03:36:20.917Z,68.90
2018-04-23T03:38:48.431Z,68.80
2018-04-23T03:41:17.477Z,69.00
2018-04-23T03:43:44.983Z,68.90
2018-04-23T03:46:12.485Z,68.40
2018-04-23T03:48:40.861Z,69.50
2018-04-23T03:51:09.142Z,68.10
2018-04-23T03:53:37.421Z,68.90
2018-04-23T03:56:05.749Z,68.00
2018-04-23T03:58:33.249Z,67.90
2018-04-23T04:01:02.285Z,68.50
2018-04-23T04:03:29.805Z,68.50
2018-04-23T04:05:57.322Z,69.00
2018-04-23T04:08:24.821Z,69.30
2018-04-23T04:10:52.369Z,69.00
2018-04-23T04:13:31.610Z,69.60
2018-04-23T04:16:10.845Z,69.30
2018-04-23T04:18:45.099Z,69.80
2018-04-23T04:21:12.616Z,69.60
2018-04-23T04:23:40.137Z,69.60
2018-04-23T04:26:08.402Z,70.40
2018-04-23T04:28:35.929Z,70.30
2018-04-23T04:31:03.434Z,70.50
2018-04-23T04:33:31.728Z,69.80
2018-04-23T04:36:00.014Z,70.60
2018-04-23T04:38:28.293Z,70.10
2018-04-23T04:40:56.564Z,71.20
2018-04-23T04:43:24.858Z,70.40
2018-04-23T04:45:52.413Z,70.40
2018-04-23T04:48:20.718Z,71.10
2018-04-23T04:50:48.366Z,71.10
2018-04-23T04:53:16.655Z,70.60
2018-04-23T04:55:44.930Z,70.30
2018-04-23T04:58:13.228Z,71.10
2018-04-23T05:00:40.733Z,71.00
2018-04-23T05:03:08.242Z,69.80
2018-04-23T05:05:35.774Z,69.80
2018-04-23T05:08:03.375Z,69.80
2018-04-23T05:10:30.918Z,70.30
2018-04-23T05:12:59.210Z,70.30
2018-04-23T05:15:27.487Z,70.30
2018-04-23T05:17:55.769Z,69.30
2018-04-23T05:20:24.089Z,69.40
2018-04-23T05:22:51.651Z,69.30
2018-04-23T05:25:19.187Z,69.10
2018-04-23T05:27:47.677Z,69.40
2018-04-23T05:30:15.220Z,69.40
2018-04-23T05:32:42.734Z,69.80
2018-04-23T05:35:10.289Z,69.70
2018-04-23T05:37:37.837Z,70.10
2018-04-23T05:40:05.673Z,70.10
2018-04-23T05:42:33.225Z,69.50
2018-04-23T05:45:00.736Z,70.00
2018-04-23T05:47:28.253Z,69.40
2018-04-23T05:49:55.803Z,69.20
2018-04-23T05:52:23.703Z,68.20
2018-04-23T05:54:51.222Z,69.20
2018-04-23T05:57:19.521Z,67.90
2018-04-23T05:59:47.056Z,67.80
2018-04-23T06:02:14.653Z,67.80
2018-04-23T06:04:42.202Z,67.50
2018-04-23T06:07:09.732Z,67.70
2018-04-23T06:09:38.014Z,66.90
2018-04-23T06:12:06.384Z,67.10
2018-04-23T06:14:34.681Z,67.00
2018-04-23T06:17:02.212Z,66.80
2018-04-23T06:19:29.750Z,66.80
2018-04-23T06:21:57.276Z,67.40
2018-04-23T06:24:24.800Z,67.20
2018-04-23T06:26:53.109Z,66.90
2018-04-23T06:29:21.396Z,67.00
2018-04-23T06:31:49.676Z,66.10
2018-04-23T06:34:17.987Z,66.60
2018-04-23T06:36:45.514Z,66.60
2018-04-23T06:39:13.791Z,67.00
2018-04-23T06:41:42.125Z,66.40
2018-04-23T06:44:09.662Z,66.30
2018-04-23T06:46:37.333Z,63.60
2018-04-23T06:49:04.889Z,64.00
2018-04-23T06:51:32.445Z,64.10
2018-04-23T06:54:00.079Z,63.20
2018-04-23T06:56:28.407Z,62.40
2018-04-23T06:58:55.937Z,62.40
2018-04-23T07:01:23.482Z,61.20
2018-04-23T07:03:51.036Z,60.20
2018-04-23T07:06:18.662Z,61.00
2018-04-23T07:08:46.253Z,60.30
2018-04-23T07:11:14.643Z,58.60
2018-04-23T07:13:42.173Z,58.80
2018-04-23T07:16:10.581Z,55.70
2018-04-23T07:18:38.264Z,55.70
2018-04-23T07:21:06.589Z,52.30
2018-04-23T07:23:34.871Z,50.20
2018-04-23T07:26:03.216Z,47.90
2018-04-23T07:28:30.752Z,47.90
2018-04-23T07:30:58.277Z,47.20
2018-04-23T07:33:26.861Z,47.20
2018-04-23T07:35:54.470Z,46.70
2018-04-23T07:38:22.800Z,45.10
2018-04-23T07:40:50.448Z,44.40
2018-04-23T07:43:18.042Z,43.40
2018-04-23T07:45:46.384Z,43.90
2018-04-23T07:48:13.905Z,43.90
2018-04-23T07:50:41.426Z,41.90
2018-04-23T07:53:08.991Z,41.80
2018-04-23T07:55:37.772Z,42.30
2018-04-23T07:58:05.493Z,41.40
2018-04-23T08:00:33.415Z,42.00
2018-04-23T08:03:01.157Z,39.80
2018-04-23T08:05:28.661Z,40.40
2018-04-23T08:07:56.269Z,41.20
2018-04-23T08:10:24.592Z,44.00
2018-04-23T08:12:52.097Z,44.00
2018-04-23T08:15:19.609Z,44.00
2018-04-23T08:17:47.149Z,42.00
2018-04-23T08:20:15.419Z,42.00
2018-04-23T08:22:43.696Z,41.90
2018-04-23T08:25:12.004Z,40.40
2018-04-23T08:27:39.509Z,40.30
2018-04-23T08:30:07.010Z,40.00
2018-04-23T08:32:35.326Z,40.20
2018-04-23T08:35:02.821Z,40.10
2018-04-23T08:37:30.333Z,40.50
2018-04-23T08:39:57.862Z,39.60
2018-04-23T08:42:26.169Z,37.90
2018-04-23T08:44:54.437Z,36.50
2018-04-23T08:47:22.737Z,36.90
2018-04-23T08:49:50.256Z,36.70
2018-04-23T08:52:17.761Z,36.20
2018-04-23T08:54:46.061Z,34.10
2018-04-23T08:57:13.740Z,34.10
2018-04-23T08:59:41.273Z,34.40
2018-04-23T09:02:08.817Z,34.30
2018-04-23T09:04:36.333Z,34.70
2018-04-23T09:07:03.849Z,35.50
2018-04-23T09:09:32.158Z,34.30
2018-04-23T09:11:59.693Z,34.20
2018-04-23T09:14:27.957Z,34.20
2018-04-23T09:16:57.023Z,33.90
2018-04-23T09:19:24.549Z,33.90
2018-04-23T09:21:52.822Z,38.10
2018-04-23T09:24:21.126Z,38.30
2018-04-23T09:26:48.635Z,38.30
2018-04-23T09:29:16.139Z,39.80
2018-04-23T09:31:44.451Z,40.20
2018-04-23T09:34:11.945Z,40.10
2018-04-23T09:36:39.446Z,40.50
2018-04-23T09:39:07.756Z,40.90
2018-04-23T09:41:36.055Z,41.00
2018-04-23T09:44:03.593Z,41.00
2018-04-23T09:46:31.137Z,40.70
2018-04-23T09:48:59.421Z,42.30
2018-04-23T09:51:27.722Z,42.10
2018-04-23T09:53:55.257Z,42.10
2018-04-23T09:56:23.561Z,42.20
2018-04-23T09:58:51.389Z,42.10
2018-04-23T10:01:21.409Z,43.10
2018-04-23T10:03:50.848Z,43.40
2018-04-23T10:06:19.131Z,41.90
2018-04-23T10:08:47.427Z,42.50
2018-04-23T10:11:14.986Z,42.40
2018-04-23T10:13:42.514Z,41.10
2018-04-23T10:16:10.050Z,40.80
2018-04-23T10:18:37.573Z,38.20
2018-04-23T10:21:05.850Z,34.80
2018-04-23T10:23:34.156Z,34.20
2018-04-23T10:26:01.668Z,34.20
2018-04-23T10:28:29.280Z,32.20
2018-04-23T10:30:56.801Z,31.70
2018-04-23T10:33:24.317Z,30.70
2018-04-23T10:35:51.846Z,28.20
2018-04-23T10:38:20.158Z,27.80
2018-04-23T10:40:47.722Z,27.70
2018-04-23T10:43:15.244Z,26.60
2018-04-23T10:45:42.774Z,26.60
2018-04-23T10:48:10.290Z,26.70
2018-04-23T10:50:38.609Z,28.30
2018-04-23T10:53:06.149Z,28.30
2018-04-23T10:55:33.679Z,27.70
2018-04-23T10:58:01.179Z,26.40
2018-04-23T11:00:28.825Z,25.20
2018-04-23T11:02:57.111Z,24.60
2018-04-23T11:05:25.385Z,25.10
2018-04-23T11:07:53.737Z,24.40
2018-04-23T11:10:21.252Z,24.30
2018-04-23T11:12:48.773Z,23.60
2018-04-23T11:15:16.297Z,23.30
2018-04-23T11:17:43.804Z,23.80
2018-04-23T11:20:11.313Z,23.10
2018-04-23T11:22:38.873Z,23.10
2018-04-23T11:25:06.389Z,22.50
2018-04-23T11:27:33.900Z,22.20
2018-04-23T11:30:01.431Z,22.20
2018-04-23T11:32:29.737Z,24.00
2018-04-23T11:34:58.001Z,23.00
2018-04-23T11:37:26.313Z,23.10
2018-04-23T11:39:53.838Z,23.10
2018-04-23T11:42:21.357Z,24.80
2018-04-23T11:44:48.887Z,26.30
2018-04-23T11:47:17.186Z,29.90
2018-04-23T11:49:44.691Z,29.80
2018-04-23T11:52:12.227Z,33.60
2018-04-23T11:57:09.551Z,41.10
2018-04-23T11:59:37.871Z,55.00
2018-04-23T12:02:05.556Z,55.00
2018-04-23T12:04:33.087Z,67.30
2018-04-23T12:07:01.393Z,82.10
2018-04-23T12:09:28.913Z,82.10
2018-04-23T12:11:56.435Z,83.50
2018-04-23T12:14:23.973Z,87.30
2018-04-23T12:16:51.525Z,87.60
2018-04-23T12:19:19.802Z,87.10
2018-04-23T12:21:48.115Z,89.40
2018-04-23T12:24:15.634Z,89.40
2018-04-23T12:26:43.158Z,88.30
2018-04-23T12:29:10.680Z,90.20
2018-04-23T12:31:38.957Z,91.00
2018-04-23T12:34:07.232Z,86.40
2018-04-23T12:36:35.522Z,85.60
2018-04-23T12:39:04.450Z,89.10
2018-04-23T12:41:31.959Z,89.00
2018-04-23T12:43:59.512Z,86.60
2018-04-23T12:46:27.793Z,89.70
2018-04-23T12:48:55.321Z,89.60
2018-04-23T12:51:22.869Z,88.00
2018-04-23T12:53:50.381Z,89.70
2018-04-23T12:56:17.893Z,87.20
2018-04-23T12:58:45.459Z,86.70
2018-04-23T13:01:12.994Z,83.20
2018-04-23T13:03:41.464Z,77.80
2018-04-23T13:06:08.993Z,78.00
2018-04-23T13:08:36.504Z,76.40
2018-04-23T13:11:04.033Z,73.80
2018-04-23T13:13:32.321Z,70.50
2018-04-23T13:15:59.832Z,70.40
2018-04-23T13:18:28.181Z,61.50
2018-04-23T13:20:56.499Z,66.40
2018-04-23T13:23:24.773Z,65.80
2018-04-23T13:25:53.073Z,62.10
2018-04-23T13:28:20.636Z,62.20
2018-04-23T13:30:48.153Z,65.10
2018-04-23T13:33:15.689Z,64.40
2018-04-23T13:35:43.257Z,65.20
2018-04-23T13:38:11.542Z,62.10
2018-04-23T13:40:39.823Z,65.40
2018-04-23T13:43:08.120Z,64.50
2018-04-23T13:45:35.625Z,64.50
2018-04-23T13:48:03.896Z,61.10
2018-04-23T13:50:32.213Z,57.90
2018-04-23T13:52:59.729Z,57.90
2018-04-23T13:55:27.237Z,57.00
2018-04-23T13:57:54.770Z,57.70
2018-04-23T14:00:23.053Z,55.20
2018-04-23T14:02:51.333Z,56.20
2018-04-23T14:05:19.725Z,59.00
2018-04-23T14:07:47.991Z,58.20
2018-04-23T14:10:16.281Z,57.60
2018-04-23T14:12:44.589Z,56.50
2018-04-23T14:15:12.097Z,56.40
2018-04-23T14:17:39.637Z,56.20
2018-04-23T14:20:07.157Z,53.50
2018-04-23T14:22:35.433Z,54.80
2018-04-23T14:25:03.721Z,54.70
2018-04-23T14:27:32.113Z,52.40
2018-04-23T14:30:00.392Z,54.00
2018-04-23T14:32:28.666Z,54.20
2018-04-23T14:34:56.976Z,52.60
2018-04-23T14:37:24.472Z,52.50
2018-04-23T14:39:52.000Z,54.20
2018-04-23T14:42:19.548Z,52.10
2018-04-23T14:44:47.846Z,53.20
2018-04-23T14:47:15.352Z,53.20
2018-04-23T14:49:42.885Z,53.00
2018-04-23T14:52:10.398Z,51.60
2018-04-23T14:54:37.922Z,53.90
2018-04-23T14:57:05.445Z,53.40
2018-04-23T14:59:33.720Z,52.90
2018-04-23T15:02:02.020Z,54.30
2018-04-23T15:04:29.571Z,54.20
2018-04-23T15:06:57.919Z,53.50
2018-04-23T15:09:25.429Z,53.50
2018-04-23T15:11:52.964Z,54.40
2018-04-23T15:14:21.239Z,53.90
2018-04-23T15:16:48.750Z,53.30
2018-04-23T15:19:16.307Z,54.50
2018-04-23T15:21:43.825Z,53.80
2018-04-23T15:24:11.340Z,53.80
2018-04-23T15:26:38.878Z,54.80
2018-04-23T15:29:07.161Z,55.10
2018-04-23T15:31:35.437Z,55.30
2018-04-23T15:34:03.747Z,54.30
2018-04-23T15:36:31.264Z,54.20
2018-04-23T15:38:59.545Z,54.40
2018-04-23T15:41:27.103Z,54.20
2018-04-23T15:43:55.382Z,55.30
2018-04-23T15:46:22.885Z,55.30
2018-04-23T15:48:51.180Z,55.50
2018-04-23T15:51:19.461Z,55.50
2018-04-23T15:53:46.977Z,55.50
2018-04-23T15:56:14.508Z,57.30
2018-04-23T15:58:42.046Z,56.30
2018-04-23T16:01:09.556Z,56.70
2018-04-23T16:03:37.092Z,56.70
2018-04-23T16:06:05.571Z,56.50
2018-04-23T16:08:34.334Z,56.40
2018-04-23T16:11:02.113Z,55.20
2018-04-23T16:13:29.818Z,55.50
2018-04-23T16:15:57.567Z,55.30
2018-04-23T16:18:25.385Z,56.20
2018-04-23T16:20:53.791Z,57.40
2018-04-23T16:23:21.908Z,55.70
2018-04-23T16:25:49.639Z,56.00
2018-04-23T16:28:17.692Z,56.00
2018-04-23T16:30:45.852Z,56.00
2018-04-23T16:33:13.522Z,56.40
2018-04-23T16:35:41.197Z,56.70
2018-04-23T16:38:09.572Z,56.10
2018-04-23T16:40:37.105Z,56.00
2018-04-23T16:43:04.662Z,55.40
2018-04-23T16:45:32.181Z,55.70
2018-04-23T16:47:59.802Z,56.10
2018-04-23T16:50:27.338Z,55.30
2018-04-23T16:52:54.861Z,55.40
2018-04-23T16:55:22.423Z,55.00
2018-04-23T16:57:49.933Z,55.60
2018-04-23T17:00:18.203Z,56.90
2018-04-23T17:02:46.510Z,56.60
2018-04-23T17:05:14.025Z,56.60
2018-04-23T17:07:41.548Z,56.80
2018-04-23T17:10:09.159Z,57.50
2018-04-23T17:12:36.684Z,57.60
2018-04-23T17:15:04.226Z,58.00
2018-04-23T17:17:32.520Z,58.00
2018-04-23T17:20:00.456Z,57.80
2018-04-23T17:22:28.065Z,57.00
2018-04-23T17:24:55.605Z,56.50
2018-04-23T17:27:23.895Z,55.90
2018-04-23T17:29:51.419Z,55.80
2018-04-23T17:32:20.465Z,55.70
2018-04-23T17:34:47.969Z,55.70
2018-04-23T17:37:15.483Z,55.90
2018-04-23T17:39:43.016Z,56.50
2018-04-23T17:42:10.519Z,56.60
2018-04-23T17:44:38.025Z,55.50
2018-04-23T17:47:05.564Z,55.80
2018-04-23T17:49:33.077Z,56.70
2018-04-23T17:52:01.412Z,56.40
2018-04-23T17:54:28.964Z,56.30
2018-04-23T17:56:56.484Z,57.10
2018-04-23T17:59:23.998Z,57.10
2018-04-23T18:01:51.530Z,58.30
2018-04-23T18:04:19.846Z,57.50
2018-04-23T18:06:47.354Z,57.40
2018-04-23T18:09:14.920Z,58.00
2018-04-23T18:11:42.501Z,58.30
2018-04-23T18:14:10.792Z,59.10
2018-04-23T18:16:39.093Z,59.50
2018-04-23T18:19:06.615Z,59.40
2018-04-23T18:21:34.134Z,60.00
2018-04-23T18:24:01.736Z,60.40
2018-04-23T18:26:29.337Z,60.20
2018-04-23T18:28:56.853Z,61.10
2018-04-23T18:31:24.466Z,60.70
2018-04-23T18:33:51.952Z,61.10
2018-04-23T18:36:19.461Z,61.70
2018-04-23T18:38:47.024Z,62.10
2018-04-23T18:41:14.548Z,61.90
2018-04-23T18:43:42.055Z,62.60
2018-04-23T18:46:09.590Z,62.70
2018-04-23T18:48:37.097Z,62.20
2018-04-23T18:51:05.374Z,62.60
2018-04-23T18:53:33.669Z,63.10
2018-04-23T18:56:01.954Z,63.30
2018-04-23T18:58:30.221Z,63.40
2018-04-23T19:00:58.526Z,63.10
2018-04-23T19:03:26.057Z,63.10
2018-04-23T19:05:53.568Z,63.60
2018-04-23T19:08:21.104Z,63.70
2018-04-23T19:10:49.381Z,63.30
2018-04-23T19:13:17.717Z,64.40
2018-04-23T19:15:45.261Z,64.40
2018-04-23T19:18:12.777Z,65.40
2018-04-23T19:20:40.338Z,65.70
2018-04-23T19:23:08.627Z,65.80
2018-04-23T19:25:36.141Z,65.80
2018-04-23T19:28:03.667Z,64.80
2018-04-23T19:30:32.008Z,65.00
2018-04-23T19:32:59.607Z,65.00
2018-04-23T19:35:27.077Z,65.70
2018-04-23T19:37:55.684Z,66.80
2018-04-23T19:40:23.215Z,66.70
2018-04-23T19:42:51.517Z,66.40
2018-04-23T19:45:19.047Z,66.80
2018-04-23T19:47:46.567Z,65.70
2018-04-23T19:50:14.085Z,65.50
2018-04-23T19:52:41.633Z,65.60
2018-04-23T19:55:09.682Z,66.30
2018-04-23T19:57:37.283Z,65.70
2018-04-23T20:00:04.989Z,66.00
2018-04-23T20:02:32.549Z,66.10
2018-04-23T20:05:00.093Z,65.90
2018-04-23T20:07:27.638Z,65.80
2018-04-23T20:09:55.168Z,66.10
2018-04-23T20:12:22.669Z,65.80
2018-04-23T20:14:50.372Z,66.40
2018-04-23T20:17:29.527Z,66.60
2018-04-23T20:19:57.819Z,65.80
2018-04-23T20:22:25.362Z,65.70
2018-04-23T20:24:52.872Z,65.50
2018-04-23T20:27:20.441Z,66.20
2018-04-23T20:29:47.968Z,65.80
2018-04-23T20:32:15.483Z,65.60
2018-04-23T20:34:43.801Z,65.90
2018-04-23T20:37:11.318Z,65.70
2018-04-23T20:39:38.849Z,65.80
2018-04-23T20:42:06.417Z,66.70
2018-04-23T20:44:33.973Z,66.40
2018-04-23T20:47:01.501Z,66.20
2018-04-23T20:49:29.901Z,65.80
2018-04-23T20:51:57.463Z,65.80
2018-04-23T20:54:25.150Z,65.70
2018-04-23T20:56:52.686Z,66.20
2018-04-23T20:59:21.140Z,67.00
2018-04-23T21:01:50.162Z,68.60
2018-04-23T21:04:18.493Z,69.30
2018-04-23T21:06:46.028Z,69.30
2018-04-23T21:09:13.557Z,70.20
2018-04-23T21:11:41.085Z,70.90
2018-04-23T21:14:09.320Z,72.50
2018-04-23T21:16:37.643Z,72.50
2018-04-23T21:19:05.178Z,72.50
2018-04-23T21:21:32.689Z,73.40
2018-04-23T21:24:00.195Z,73.70
2018-04-23T21:26:28.491Z,74.20
2018-04-23T21:28:56.006Z,74.10
2018-04-23T21:31:23.535Z,74.60
2018-04-23T21:33:51.083Z,75.00
2018-04-23T21:36:18.604Z,75.00
2018-04-23T21:38:46.121Z,75.30
2018-04-23T21:41:13.668Z,75.60
2018-04-23T21:43:42.014Z,75.90
2018-04-23T21:46:09.473Z,75.90
2018-04-23T21:48:37.020Z,75.80
2018-04-23T21:51:04.543Z,76.60
2018-04-23T21:53:32.109Z,76.10
2018-04-23T21:56:00.406Z,76.40
2018-04-23T21:58:27.944Z,76.40
2018-04-23T22:00:56.211Z,77.30
2018-04-23T22:03:23.733Z,77.30
2018-04-23T22:05:51.251Z,77.00
2018-04-23T22:08:19.517Z,77.60
2018-04-23T22:10:47.816Z,77.00
2018-04-23T22:13:16.093Z,77.20
2018-04-23T22:15:44.409Z,77.30
2018-04-23T22:18:12.868Z,77.30
2018-04-23T22:20:40.395Z,77.20
2018-04-23T22:23:07.925Z,76.80
2018-04-23T22:25:35.485Z,77.10
2018-04-23T22:28:02.990Z,77.00
2018-04-23T22:30:30.502Z,76.40
2018-04-23T22:32:58.050Z,76.10
2018-04-23T22:35:26.341Z,74.70
2018-04-23T22:37:54.612Z,74.70
2018-04-23T22:40:22.921Z,74.80
2018-04-23T22:42:50.445Z,74.70
2018-04-23T22:45:18.740Z,73.80
2018-04-23T22:47:47.040Z,75.40
2018-04-23T22:50:14.553Z,74.70
2018-04-23T22:52:42.157Z,74.70
2018-04-23T22:55:10.461Z,75.50
2018-04-23T22:57:37.982Z,75.50
2018-04-23T23:00:06.256Z,77.10
2018-04-23T23:02:34.570Z,76.90
2018-04-23T23:05:02.094Z,77.00
2018-04-23T23:07:30.413Z,77.00
2018-04-23T23:09:57.972Z,77.00
2018-04-23T23:12:25.537Z,77.10
2018-04-23T23:14:53.053Z,77.50
2018-04-23T23:17:20.587Z,77.50
2018-04-23T23:19:48.344Z,77.40
2018-04-23T23:22:16.612Z,77.70
2018-04-23T23:24:44.917Z,77.50
2018-04-23T23:27:12.421Z,77.40
2018-04-23T23:29:39.946Z,77.70
2018-04-23T23:32:07.491Z,77.70
2018-04-23T23:34:35.016Z,77.70
2018-04-23T23:37:02.549Z,77.40
2018-04-23T23:39:30.082Z,77.30
2018-04-23T23:41:58.352Z,77.30
2018-04-23T23:44:26.639Z,78.10
2018-04-23T23:46:54.941Z,77.70
2018-04-23T23:49:22.452Z,77.70
2018-04-23T23:51:51.461Z,77.90
2018-04-23T23:54:19.768Z,78.10
2018-04-23T23:56:48.041Z,78.20
2018-04-23T23:59:16.339Z,78.70
